Evia Star — SX8621 — position and weather

sailwx.info

Track history (hours):
 
Tides and Currents Weather Stations Pressure Air Temp Water Temp Dewpoint Dewpoint Depression Visibility Wind Speed Wind Dir Waves Ship Positions

Evia Star

Last reported at 2018-Jan-01 05:44 UTC. Time now 2018-Feb-25 14:06 UTC.
Position N 38°03' E 024°19'.
Warning: this ship's position is 55 days out of date.

Length 87 m; draft 3.6 m.

Type: Ship. MMSI: 237363700.

Date/timePositionNaut miles runAvg speedWind from/ knotsBaromVisibWave heightAir tempDewpointWater temp
2018-Jan-01 05:44N 38°03' E 024°19'0 0.0
2018-Jan-01 05:20N 38°03' E 024°19'7 0.2
2017-Dec-30 15:58N 38°02' E 024°10'7 7.3
2017-Dec-30 15:02N 38°01' E 024°01'015.0
2017-Dec-30 15:00N 38°01' E 024°02'11 1.7
2017-Dec-30 08:47N 38°02' E 024°15'415.2
2017-Dec-30 08:30N 38°02' E 024°10'7 8.0
2017-Dec-30 07:37N 38°01' E 024°01'110.3
2017-Dec-30 07:30N 38°02' E 024°02'814.6
2017-Dec-30 06:58N 38°02' E 024°12'611.8
2017-Dec-30 06:30N 38°03' E 024°19'2 0.2
2017-Dec-29 17:52N 38°02' E 024°16'514.4
2017-Dec-29 17:30N 38°01' E 024°10'6 6.4
2017-Dec-29 16:30N 38°01' E 024°02'714.2
2017-Dec-29 16:00N 38°02' E 024°11'3 2.0
2017-Dec-29 14:18N 38°02' E 024°15'414.2
2017-Dec-29 13:59N 38°02' E 024°09'7 1.4
2017-Dec-29 09:19N 38°01' E 024°01'414.4
2017-Dec-29 09:00N 38°01' E 024°07'813.7
2017-Dec-29 08:26N 38°02' E 024°16'0 0.4
2017-Dec-29 07:27N 38°02' E 024°17'613.8
2017-Dec-29 07:00N 38°01' E 024°09'713.3
2017-Dec-29 06:29N 38°01' E 024°01'4 7.7
2017-Dec-29 06:00N 38°00' E 024°05'611.6
2017-Dec-29 05:30N 38°02' E 024°12'1 0.0
2017-Dec-28 15:42N 38°01' E 024°12'212.2
2017-Dec-28 15:30N 38°00' E 024°09'7 8.1
2017-Dec-28 14:41N 38°01' E 024°01'314.5
2017-Dec-28 14:30N 38°01' E 024°05'611.9
2017-Dec-28 14:00N 38°02' E 024°12'4 0.6
2017-Dec-28 07:28N 38°02' E 024°17'613.7
2017-Dec-28 07:00N 38°01' E 024°09'6 7.0
2017-Dec-28 06:08N 38°01' E 024°01'214.3
2017-Dec-28 06:00N 38°01' E 024°03'6 0.5
2017-Dec-27 16:34N 38°02' E 024°11'115.2
2017-Dec-27 16:31N 38°02' E 024°10'7 7.3
2017-Dec-27 15:32N 38°01' E 024°01'014.2
2017-Dec-27 15:31N 38°01' E 024°02'6 2.9
2017-Dec-27 13:28N 38°02' E 024°09'7 5.3
2017-Dec-27 12:13N 38°01' E 024°01'0 0.0
2017-Dec-27 11:53N 38°01' E 024°01'0 0.0
2017-Dec-27 11:30N 38°01' E 024°01'0 0.0
2017-Dec-27 10:57N 38°01' E 024°01'0 0.0
2017-Dec-27 10:29N 38°01' E 024°01'0 0.3
2017-Dec-27 09:15N 38°01' E 024°01'314.9
2017-Dec-27 09:01N 38°02' E 024°06'4 1.9
2017-Dec-27 07:02N 38°02' E 024°10'015.2
2017-Dec-27 07:01N 38°02' E 024°10'714.1
2017-Dec-27 06:30N 38°01' E 024°01'1 2.1
2017-Dec-27 06:00N 38°01' E 024°02'12 1.0
2017-Dec-26 18:42N 38°02' E 024°17'415.3
2017-Dec-26 18:26N 38°02' E 024°12'615.1
2017-Dec-26 18:00N 38°02' E 024°03'2 3.5
2017-Dec-26 17:29N 38°01' E 024°01'6 2.6
2017-Dec-26 14:59N 38°02' E 024°09'6 6.1
2017-Dec-26 14:01N 38°01' E 024°02'016.0
2017-Dec-26 14:01N 38°01' E 024°02'11 0.4
2017-Dec-25 08:20N 38°02' E 024°16'515.0
2017-Dec-25 08:00N 38°02' E 024°10'714.0
2017-Dec-25 07:30N 38°01' E 024°01'1 1.7
2017-Dec-25 06:59N 38°01' E 024°02'11 0.7
2017-Dec-24 16:19N 38°03' E 024°15'515.1
2017-Dec-24 15:59N 38°02' E 024°09'6 6.9
2017-Dec-24 15:03N 38°01' E 024°01'114.5
2017-Dec-24 15:00N 38°01' E 024°02'1214.8
2017-Dec-24 14:11N 38°02' E 024°17'1 0.2
2017-Dec-24 07:50N 38°02' E 024°16'515.0
2017-Dec-24 07:30N 38°02' E 024°10'7 7.2
2017-Dec-24 06:32N 38°01' E 024°01'114.6
2017-Dec-24 06:30N 38°01' E 024°02'14 1.0
2017-Dec-23 16:53N 38°03' E 024°19'713.2
2017-Dec-23 16:23N 38°02' E 024°11'614.6
2017-Dec-23 16:00N 38°02' E 024°04'2 2.7
2017-Dec-23 15:08N 38°01' E 024°01'214.4
2017-Dec-23 15:00N 38°01' E 024°03'1114.9
2017-Dec-23 14:15N 38°02' E 024°17'1 0.1
2017-Dec-22 12:51N 38°03' E 024°19'511.5
2017-Dec-22 12:27N 38°03' E 024°13'613.6
2017-Dec-22 12:00N 38°02' E 024°06'4 1.5
2017-Dec-22 09:32N 38°01' E 024°01'012.1
2017-Dec-22 09:30N 38°01' E 024°01'714.5
2017-Dec-22 09:00N 38°03' E 024°11'713.7
2017-Dec-22 08:30N 38°03' E 024°19'0 0.1
2017-Dec-22 07:46N 38°03' E 024°19'412.4
2017-Dec-22 07:27N 38°03' E 024°14'614.2
2017-Dec-22 07:01N 38°02' E 024°06'4 4.8
2017-Dec-22 06:10N 38°01' E 024°01'214.9
2017-Dec-22 06:00N 38°02' E 024°04'  
Track history (hours):
 
Tides and Currents Weather Stations Pressure Air Temp Water Temp Dewpoint Dewpoint Depression Visibility Wind Speed Wind Dir Waves Ship Positions

Evia Star

Last reported at 2018-Jan-01 05:44 UTC. Time now 2018-Feb-25 14:06 UTC.
Position N 38°03' E 024°19'.
Warning: this ship's position is 55 days out of date.

Length 87 m; draft 3.6 m.

Type: Ship. MMSI: 237363700.

Date/timePositionNaut miles runAvg speedWind from/ knotsBaromVisibWave heightAir tempDewpointWater temp
2018-Jan-01 05:44N 38°03' E 024°19'0 0.0
2018-Jan-01 05:20N 38°03' E 024°19'7 0.2
2017-Dec-30 15:58N 38°02' E 024°10'7 7.3
2017-Dec-30 15:02N 38°01' E 024°01'015.0
2017-Dec-30 15:00N 38°01' E 024°02'11 1.7
2017-Dec-30 08:47N 38°02' E 024°15'415.2
2017-Dec-30 08:30N 38°02' E 024°10'7 8.0
2017-Dec-30 07:37N 38°01' E 024°01'110.3
2017-Dec-30 07:30N 38°02' E 024°02'814.6
2017-Dec-30 06:58N 38°02' E 024°12'611.8
2017-Dec-30 06:30N 38°03' E 024°19'2 0.2
2017-Dec-29 17:52N 38°02' E 024°16'514.4
2017-Dec-29 17:30N 38°01' E 024°10'6 6.4
2017-Dec-29 16:30N 38°01' E 024°02'714.2
2017-Dec-29 16:00N 38°02' E 024°11'3 2.0
2017-Dec-29 14:18N 38°02' E 024°15'414.2
2017-Dec-29 13:59N 38°02' E 024°09'7 1.4
2017-Dec-29 09:19N 38°01' E 024°01'414.4
2017-Dec-29 09:00N 38°01' E 024°07'813.7
2017-Dec-29 08:26N 38°02' E 024°16'0 0.4
2017-Dec-29 07:27N 38°02' E 024°17'613.8
2017-Dec-29 07:00N 38°01' E 024°09'713.3
2017-Dec-29 06:29N 38°01' E 024°01'4 7.7
2017-Dec-29 06:00N 38°00' E 024°05'611.6
2017-Dec-29 05:30N 38°02' E 024°12'1 0.0
2017-Dec-28 15:42N 38°01' E 024°12'212.2
2017-Dec-28 15:30N 38°00' E 024°09'7 8.1
2017-Dec-28 14:41N 38°01' E 024°01'314.5
2017-Dec-28 14:30N 38°01' E 024°05'611.9
2017-Dec-28 14:00N 38°02' E 024°12'4 0.6
2017-Dec-28 07:28N 38°02' E 024°17'613.7
2017-Dec-28 07:00N 38°01' E 024°09'6 7.0
2017-Dec-28 06:08N 38°01' E 024°01'214.3
2017-Dec-28 06:00N 38°01' E 024°03'6 0.5
2017-Dec-27 16:34N 38°02' E 024°11'115.2
2017-Dec-27 16:31N 38°02' E 024°10'7 7.3
2017-Dec-27 15:32N 38°01' E 024°01'014.2
2017-Dec-27 15:31N 38°01' E 024°02'6 2.9
2017-Dec-27 13:28N 38°02' E 024°09'7 5.3
2017-Dec-27 12:13N 38°01' E 024°01'0 0.0
2017-Dec-27 11:53N 38°01' E 024°01'0 0.0
2017-Dec-27 11:30N 38°01' E 024°01'0 0.0
2017-Dec-27 10:57N 38°01' E 024°01'0 0.0
2017-Dec-27 10:29N 38°01' E 024°01'0 0.3
2017-Dec-27 09:15N 38°01' E 024°01'314.9
2017-Dec-27 09:01N 38°02' E 024°06'4 1.9
2017-Dec-27 07:02N 38°02' E 024°10'015.2
2017-Dec-27 07:01N 38°02' E 024°10'714.1
2017-Dec-27 06:30N 38°01' E 024°01'1 2.1
2017-Dec-27 06:00N 38°01' E 024°02'12 1.0
2017-Dec-26 18:42N 38°02' E 024°17'415.3
2017-Dec-26 18:26N 38°02' E 024°12'615.1
2017-Dec-26 18:00N 38°02' E 024°03'2 3.5
2017-Dec-26 17:29N 38°01' E 024°01'6 2.6
2017-Dec-26 14:59N 38°02' E 024°09'6 6.1
2017-Dec-26 14:01N 38°01' E 024°02'016.0
2017-Dec-26 14:01N 38°01' E 024°02'11 0.4
2017-Dec-25 08:20N 38°02' E 024°16'515.0
2017-Dec-25 08:00N 38°02' E 024°10'714.0
2017-Dec-25 07:30N 38°01' E 024°01'1 1.7
2017-Dec-25 06:59N 38°01' E 024°02'11 0.7
2017-Dec-24 16:19N 38°03' E 024°15'515.1
2017-Dec-24 15:59N 38°02' E 024°09'6 6.9
2017-Dec-24 15:03N 38°01' E 024°01'114.5
2017-Dec-24 15:00N 38°01' E 024°02'1214.8
2017-Dec-24 14:11N 38°02' E 024°17'1 0.2
2017-Dec-24 07:50N 38°02' E 024°16'515.0
2017-Dec-24 07:30N 38°02' E 024°10'7 7.2
2017-Dec-24 06:32N 38°01' E 024°01'114.6
2017-Dec-24 06:30N 38°01' E 024°02'14 1.0
2017-Dec-23 16:53N 38°03' E 024°19'713.2
2017-Dec-23 16:23N 38°02' E 024°11'614.6
2017-Dec-23 16:00N 38°02' E 024°04'2 2.7
2017-Dec-23 15:08N 38°01' E 024°01'214.4
2017-Dec-23 15:00N 38°01' E 024°03'1114.9
2017-Dec-23 14:15N 38°02' E 024°17'1 0.1
2017-Dec-22 12:51N 38°03' E 024°19'511.5
2017-Dec-22 12:27N 38°03' E 024°13'613.6
2017-Dec-22 12:00N 38°02' E 024°06'4 1.5
2017-Dec-22 09:32N 38°01' E 024°01'012.1
2017-Dec-22 09:30N 38°01' E 024°01'714.5
2017-Dec-22 09:00N 38°03' E 024°11'713.7
2017-Dec-22 08:30N 38°03' E 024°19'0 0.1
2017-Dec-22 07:46N 38°03' E 024°19'412.4
2017-Dec-22 07:27N 38°03' E 024°14'614.2
2017-Dec-22 07:01N 38°02' E 024°06'4 4.8
2017-Dec-22 06:10N 38°01' E 024°01'214.9
2017-Dec-22 06:00N 38°02' E 024°04'  

Dump ship's entire track history